Terminal Aerodrome Forecast
Issued by NWS

Home | Current Version | Previous Version | Text Only | Print | Product List | Glossary On
Versions: 1 2 3 4 5 6 7 8 9 10 11 12 13 14 15 16
913
FTUS45 KTFX 281120
TAFCTB
TAF
KCTB 281120Z 2812/2912 32012KT P6SM SCT150
     FM290200 VRB06KT P6SM FEW180=

USA.gov is the U.S. government's official web portal to all federal, state and local government web resources and services.